sensor_id;sensor_type;location;lat;lon;timestamp;P1;durP1;ratioP1;P2;durP2;ratioP2
35074;SDS011;21260;34.984;32.490;2023-08-12T00:02:14;11.23;;;7.30;;
35074;SDS011;21260;34.984;32.490;2023-08-12T00:04:40;11.75;;;6.95;;
35074;SDS011;21260;34.984;32.490;2023-08-12T00:07:07;11.20;;;7.05;;
35074;SDS011;21260;34.984;32.490;2023-08-12T00:09:33;12.88;;;7.10;;
35074;SDS011;21260;34.984;32.490;2023-08-12T00:11:59;11.30;;;7.07;;
35074;SDS011;21260;34.984;32.490;2023-08-12T00:14:26;9.70;;;6.82;;
35074;SDS011;21260;34.984;32.490;2023-08-12T00:16:52;13.70;;;7.35;;
35074;SDS011;21260;34.984;32.490;2023-08-12T00:19:18;11.20;;;7.13;;
35074;SDS011;21260;34.984;32.490;2023-08-12T00:21:45;11.95;;;7.40;;
35074;SDS011;21260;34.984;32.490;2023-08-12T00:24:12;10.75;;;7.10;;
35074;SDS011;21260;34.984;32.490;2023-08-12T00:26:38;8.73;;;6.57;;
35074;SDS011;21260;34.984;32.490;2023-08-12T00:29:05;11.20;;;7.07;;
35074;SDS011;21260;34.984;32.490;2023-08-12T00:31:31;11.77;;;6.85;;
35074;SDS011;21260;34.984;32.490;2023-08-12T00:33:57;10.70;;;6.82;;
35074;SDS011;21260;34.984;32.490;2023-08-12T00:36:23;11.18;;;6.68;;
35074;SDS011;21260;34.984;32.490;2023-08-12T00:38:50;10.20;;;6.60;;
35074;SDS011;21260;34.984;32.490;2023-08-12T00:41:16;11.43;;;7.20;;
35074;SDS011;21260;34.984;32.490;2023-08-12T00:43:43;11.45;;;6.85;;
35074;SDS011;21260;34.984;32.490;2023-08-12T00:46:09;11.50;;;7.20;;
35074;SDS011;21260;34.984;32.490;2023-08-12T00:48:36;10.85;;;7.43;;
35074;SDS011;21260;34.984;32.490;2023-08-12T00:51:02;11.77;;;7.10;;
35074;SDS011;21260;34.984;32.490;2023-08-12T00:53:29;8.93;;;6.85;;
35074;SDS011;21260;34.984;32.490;2023-08-12T00:55:55;9.75;;;7.10;;
35074;SDS011;21260;34.984;32.490;2023-08-12T00:58:22;11.45;;;6.78;;
35074;SDS011;21260;34.984;32.490;2023-08-12T01:00:51;10.73;;;7.30;;
35074;SDS011;21260;34.984;32.490;2023-08-12T01:03:17;8.88;;;6.82;;
35074;SDS011;21260;34.984;32.490;2023-08-12T01:05:44;11.48;;;6.90;;
35074;SDS011;21260;34.984;32.490;2023-08-12T01:08:13;12.20;;;7.60;;
35074;SDS011;21260;34.984;32.490;2023-08-12T01:10:45;10.05;;;6.90;;
35074;SDS011;21260;34.984;32.490;2023-08-12T01:16:26;11.73;;;7.25;;
35074;SDS011;21260;34.984;32.490;2023-08-12T01:18:58;10.77;;;6.72;;
35074;SDS011;21260;34.984;32.490;2023-08-12T01:21:27;10.15;;;7.50;;
35074;SDS011;21260;34.984;32.490;2023-08-12T01:23:57;9.85;;;7.15;;
35074;SDS011;21260;34.984;32.490;2023-08-12T01:26:24;12.68;;;7.45;;
35074;SDS011;21260;34.984;32.490;2023-08-12T01:28:50;13.50;;;7.50;;
35074;SDS011;21260;34.984;32.490;2023-08-12T01:31:23;11.05;;;7.32;;
35074;SDS011;21260;34.984;32.490;2023-08-12T01:34:39;9.90;;;7.05;;
35074;SDS011;21260;34.984;32.490;2023-08-12T01:37:21;10.02;;;7.05;;
35074;SDS011;21260;34.984;32.490;2023-08-12T01:39:54;10.93;;;7.00;;
35074;SDS011;21260;34.984;32.490;2023-08-12T01:42:24;11.82;;;7.57;;
35074;SDS011;21260;34.984;32.490;2023-08-12T01:44:51;10.38;;;7.30;;
35074;SDS011;21260;34.984;32.490;2023-08-12T01:47:17;9.13;;;7.30;;
35074;SDS011;21260;34.984;32.490;2023-08-12T01:49:44;10.68;;;7.70;;
35074;SDS011;21260;34.984;32.490;2023-08-12T01:52:10;9.30;;;7.13;;
35074;SDS011;21260;34.984;32.490;2023-08-12T01:54:36;11.60;;;7.53;;
35074;SDS011;21260;34.984;32.490;2023-08-12T01:57:03;11.40;;;7.50;;
35074;SDS011;21260;34.984;32.490;2023-08-12T01:59:34;10.30;;;7.43;;
35074;SDS011;21260;34.984;32.490;2023-08-12T02:02:02;9.45;;;7.60;;
35074;SDS011;21260;34.984;32.490;2023-08-12T02:04:29;10.35;;;7.25;;
35074;SDS011;21260;34.984;32.490;2023-08-12T02:06:56;12.15;;;7.50;;
35074;SDS011;21260;34.984;32.490;2023-08-12T02:09:22;11.52;;;7.00;;
35074;SDS011;21260;34.984;32.490;2023-08-12T02:11:49;11.45;;;7.68;;
35074;SDS011;21260;34.984;32.490;2023-08-12T02:14:15;12.48;;;7.25;;
35074;SDS011;21260;34.984;32.490;2023-08-12T02:16:42;8.13;;;6.93;;
35074;SDS011;21260;34.984;32.490;2023-08-12T02:19:09;10.60;;;7.45;;
35074;SDS011;21260;34.984;32.490;2023-08-12T02:21:36;10.65;;;6.50;;
35074;SDS011;21260;34.984;32.490;2023-08-12T02:24:02;13.35;;;7.40;;
35074;SDS011;21260;34.984;32.490;2023-08-12T02:26:29;11.55;;;7.50;;
35074;SDS011;21260;34.984;32.490;2023-08-12T02:28:56;10.55;;;6.90;;
35074;SDS011;21260;34.984;32.490;2023-08-12T02:31:22;9.88;;;7.32;;
35074;SDS011;21260;34.984;32.490;2023-08-12T02:33:48;12.05;;;7.38;;
35074;SDS011;21260;34.984;32.490;2023-08-12T02:36:15;9.07;;;7.25;;
35074;SDS011;21260;34.984;32.490;2023-08-12T02:38:42;10.10;;;7.22;;
35074;SDS011;21260;34.984;32.490;2023-08-12T02:41:08;10.43;;;7.75;;
35074;SDS011;21260;34.984;32.490;2023-08-12T02:43:34;12.95;;;7.43;;
35074;SDS011;21260;34.984;32.490;2023-08-12T02:46:01;11.18;;;6.97;;
35074;SDS011;21260;34.984;32.490;2023-08-12T02:48:27;14.67;;;7.70;;
35074;SDS011;21260;34.984;32.490;2023-08-12T02:50:53;12.00;;;7.90;;
35074;SDS011;21260;34.984;32.490;2023-08-12T02:53:19;11.32;;;7.78;;
35074;SDS011;21260;34.984;32.490;2023-08-12T02:55:45;11.07;;;7.93;;
35074;SDS011;21260;34.984;32.490;2023-08-12T02:58:12;10.82;;;8.05;;
35074;SDS011;21260;34.984;32.490;2023-08-12T03:00:41;9.35;;;7.50;;
35074;SDS011;21260;34.984;32.490;2023-08-12T03:03:10;12.27;;;7.53;;
35074;SDS011;21260;34.984;32.490;2023-08-12T03:05:37;10.60;;;7.50;;
35074;SDS011;21260;34.984;32.490;2023-08-12T03:08:03;11.55;;;7.38;;
35074;SDS011;21260;34.984;32.490;2023-08-12T03:10:30;9.48;;;7.70;;
35074;SDS011;21260;34.984;32.490;2023-08-12T03:12:59;11.23;;;7.87;;
35074;SDS011;21260;34.984;32.490;2023-08-12T03:15:25;12.90;;;8.20;;
35074;SDS011;21260;34.984;32.490;2023-08-12T03:17:51;11.13;;;7.45;;
35074;SDS011;21260;34.984;32.490;2023-08-12T03:20:18;11.07;;;7.57;;
35074;SDS011;21260;34.984;32.490;2023-08-12T03:22:44;9.18;;;7.55;;
35074;SDS011;21260;34.984;32.490;2023-08-12T03:25:10;10.88;;;7.07;;
35074;SDS011;21260;34.984;32.490;2023-08-12T03:27:36;10.98;;;7.53;;
35074;SDS011;21260;34.984;32.490;2023-08-12T03:30:02;12.02;;;7.53;;
35074;SDS011;21260;34.984;32.490;2023-08-12T03:32:29;11.70;;;7.78;;
35074;SDS011;21260;34.984;32.490;2023-08-12T03:34:55;9.40;;;7.32;;
35074;SDS011;21260;34.984;32.490;2023-08-12T03:37:22;8.70;;;7.40;;
35074;SDS011;21260;34.984;32.490;2023-08-12T03:39:48;10.95;;;7.70;;
35074;SDS011;21260;34.984;32.490;2023-08-12T03:42:14;10.80;;;7.53;;
35074;SDS011;21260;34.984;32.490;2023-08-12T03:44:42;13.45;;;8.57;;
35074;SDS011;21260;34.984;32.490;2023-08-12T03:47:09;12.98;;;8.63;;
35074;SDS011;21260;34.984;32.490;2023-08-12T03:49:36;13.65;;;8.80;;
35074;SDS011;21260;34.984;32.490;2023-08-12T03:52:03;14.27;;;8.70;;
35074;SDS011;21260;34.984;32.490;2023-08-12T03:54:32;14.30;;;9.13;;
35074;SDS011;21260;34.984;32.490;2023-08-12T03:56:59;15.40;;;9.43;;
35074;SDS011;21260;34.984;32.490;2023-08-12T03:59:25;14.45;;;8.75;;
35074;SDS011;21260;34.984;32.490;2023-08-12T04:01:51;17.55;;;9.57;;
35074;SDS011;21260;34.984;32.490;2023-08-12T04:04:18;12.43;;;8.90;;
35074;SDS011;21260;34.984;32.490;2023-08-12T04:06:44;11.98;;;8.95;;
35074;SDS011;21260;34.984;32.490;2023-08-12T04:09:13;12.50;;;8.20;;
35074;SDS011;21260;34.984;32.490;2023-08-12T04:11:40;11.30;;;8.30;;
35074;SDS011;21260;34.984;32.490;2023-08-12T04:14:07;14.70;;;8.80;;
35074;SDS011;21260;34.984;32.490;2023-08-12T04:16:33;14.98;;;8.95;;
35074;SDS011;21260;34.984;32.490;2023-08-12T04:18:59;11.07;;;7.90;;
35074;SDS011;21260;34.984;32.490;2023-08-12T04:21:26;13.77;;;8.32;;
35074;SDS011;21260;34.984;32.490;2023-08-12T04:23:52;14.05;;;8.45;;
35074;SDS011;21260;34.984;32.490;2023-08-12T04:26:18;13.23;;;7.95;;
35074;SDS011;21260;34.984;32.490;2023-08-12T04:28:44;12.00;;;8.05;;
35074;SDS011;21260;34.984;32.490;2023-08-12T04:31:10;9.75;;;8.15;;
35074;SDS011;21260;34.984;32.490;2023-08-12T04:33:41;10.93;;;8.57;;
35074;SDS011;21260;34.984;32.490;2023-08-12T04:36:07;13.88;;;9.20;;
35074;SDS011;21260;34.984;32.490;2023-08-12T04:38:34;16.42;;;10.00;;
35074;SDS011;21260;34.984;32.490;2023-08-12T04:41:00;14.52;;;9.27;;
35074;SDS011;21260;34.984;32.490;2023-08-12T04:43:27;16.38;;;9.70;;
35074;SDS011;21260;34.984;32.490;2023-08-12T04:45:53;13.82;;;9.38;;
35074;SDS011;21260;34.984;32.490;2023-08-12T04:48:19;14.93;;;8.90;;
35074;SDS011;21260;34.984;32.490;2023-08-12T04:50:46;14.77;;;9.10;;
35074;SDS011;21260;34.984;32.490;2023-08-12T04:53:12;14.90;;;9.63;;
35074;SDS011;21260;34.984;32.490;2023-08-12T04:55:38;12.13;;;9.13;;
35074;SDS011;21260;34.984;32.490;2023-08-12T04:58:07;13.20;;;9.00;;
35074;SDS011;21260;34.984;32.490;2023-08-12T05:00:34;11.77;;;9.13;;
35074;SDS011;21260;34.984;32.490;2023-08-12T05:03:00;13.65;;;9.13;;
35074;SDS011;21260;34.984;32.490;2023-08-12T05:05:27;16.47;;;9.33;;
35074;SDS011;21260;34.984;32.490;2023-08-12T05:07:54;11.90;;;9.27;;
35074;SDS011;21260;34.984;32.490;2023-08-12T05:10:20;13.38;;;9.18;;
35074;SDS011;21260;34.984;32.490;2023-08-12T05:12:46;11.68;;;8.82;;
35074;SDS011;21260;34.984;32.490;2023-08-12T05:15:15;11.40;;;9.00;;
35074;SDS011;21260;34.984;32.490;2023-08-12T05:17:41;11.45;;;8.68;;
35074;SDS011;21260;34.984;32.490;2023-08-12T05:20:07;16.33;;;9.48;;
35074;SDS011;21260;34.984;32.490;2023-08-12T05:22:34;12.75;;;8.90;;
35074;SDS011;21260;34.984;32.490;2023-08-12T05:25:00;11.50;;;8.57;;
35074;SDS011;21260;34.984;32.490;2023-08-12T05:27:26;12.27;;;8.60;;
35074;SDS011;21260;34.984;32.490;2023-08-12T05:29:53;13.65;;;8.70;;
35074;SDS011;21260;34.984;32.490;2023-08-12T05:32:21;12.73;;;8.40;;
35074;SDS011;21260;34.984;32.490;2023-08-12T05:34:49;12.63;;;8.10;;
35074;SDS011;21260;34.984;32.490;2023-08-12T05:37:18;9.90;;;8.23;;
35074;SDS011;21260;34.984;32.490;2023-08-12T05:39:45;13.55;;;8.20;;
35074;SDS011;21260;34.984;32.490;2023-08-12T05:42:11;10.77;;;7.70;;
35074;SDS011;21260;34.984;32.490;2023-08-12T05:44:40;11.90;;;8.27;;
35074;SDS011;21260;34.984;32.490;2023-08-12T05:47:07;14.90;;;8.30;;
35074;SDS011;21260;34.984;32.490;2023-08-12T05:49:34;13.13;;;8.30;;
35074;SDS011;21260;34.984;32.490;2023-08-12T05:52:00;13.48;;;8.48;;
35074;SDS011;21260;34.984;32.490;2023-08-12T05:54:26;13.23;;;8.00;;
35074;SDS011;21260;34.984;32.490;2023-08-12T05:56:52;17.00;;;8.30;;
35074;SDS011;21260;34.984;32.490;2023-08-12T05:59:18;12.57;;;7.88;;
35074;SDS011;21260;34.984;32.490;2023-08-12T06:01:44;12.38;;;7.88;;
35074;SDS011;21260;34.984;32.490;2023-08-12T06:04:11;13.27;;;8.07;;
35074;SDS011;21260;34.984;32.490;2023-08-12T06:06:37;12.85;;;7.65;;
35074;SDS011;21260;34.984;32.490;2023-08-12T06:09:03;12.15;;;7.50;;
35074;SDS011;21260;34.984;32.490;2023-08-12T06:11:30;12.80;;;7.35;;
35074;SDS011;21260;34.984;32.490;2023-08-12T06:13:56;13.10;;;7.97;;
35074;SDS011;21260;34.984;32.490;2023-08-12T06:16:22;11.57;;;7.70;;
35074;SDS011;21260;34.984;32.490;2023-08-12T06:18:48;10.33;;;7.30;;
35074;SDS011;21260;34.984;32.490;2023-08-12T06:21:15;9.50;;;6.83;;
35074;SDS011;21260;34.984;32.490;2023-08-12T06:23:41;10.27;;;6.80;;
35074;SDS011;21260;34.984;32.490;2023-08-12T06:26:08;11.60;;;7.20;;
35074;SDS011;21260;34.984;32.490;2023-08-12T06:28:34;11.27;;;7.03;;
35074;SDS011;21260;34.984;32.490;2023-08-12T06:31:01;10.37;;;6.53;;
35074;SDS011;21260;34.984;32.490;2023-08-12T06:33:27;9.18;;;6.45;;
35074;SDS011;21260;34.984;32.490;2023-08-12T06:35:53;10.93;;;6.93;;
35074;SDS011;21260;34.984;32.490;2023-08-12T06:38:20;8.73;;;6.55;;
35074;SDS011;21260;34.984;32.490;2023-08-12T06:40:47;9.87;;;6.47;;
35074;SDS011;21260;34.984;32.490;2023-08-12T06:43:13;9.57;;;6.25;;
35074;SDS011;21260;34.984;32.490;2023-08-12T06:45:40;10.27;;;6.18;;
35074;SDS011;21260;34.984;32.490;2023-08-12T06:48:06;10.60;;;5.85;;
35074;SDS011;21260;34.984;32.490;2023-08-12T06:50:32;8.85;;;6.10;;
35074;SDS011;21260;34.984;32.490;2023-08-12T06:52:58;11.10;;;5.93;;
35074;SDS011;21260;34.984;32.490;2023-08-12T06:55:25;10.13;;;6.00;;
35074;SDS011;21260;34.984;32.490;2023-08-12T06:57:54;11.73;;;6.00;;
35074;SDS011;21260;34.984;32.490;2023-08-12T07:00:20;7.60;;;5.47;;
35074;SDS011;21260;34.984;32.490;2023-08-12T07:02:47;8.60;;;5.80;;
35074;SDS011;21260;34.984;32.490;2023-08-12T07:05:13;9.23;;;5.85;;
35074;SDS011;21260;34.984;32.490;2023-08-12T07:07:40;9.32;;;5.18;;
35074;SDS011;21260;34.984;32.490;2023-08-12T07:10:07;10.18;;;5.70;;
35074;SDS011;21260;34.984;32.490;2023-08-12T07:12:33;9.73;;;5.07;;
35074;SDS011;21260;34.984;32.490;2023-08-12T07:15:00;9.27;;;5.63;;
35074;SDS011;21260;34.984;32.490;2023-08-12T07:17:26;9.68;;;5.68;;
35074;SDS011;21260;34.984;32.490;2023-08-12T07:19:52;9.25;;;5.60;;
35074;SDS011;21260;34.984;32.490;2023-08-12T07:22:19;7.47;;;5.40;;
35074;SDS011;21260;34.984;32.490;2023-08-12T07:24:45;9.37;;;5.40;;
35074;SDS011;21260;34.984;32.490;2023-08-12T07:27:12;8.30;;;5.72;;
35074;SDS011;21260;34.984;32.490;2023-08-12T07:29:38;7.30;;;5.22;;
35074;SDS011;21260;34.984;32.490;2023-08-12T07:32:04;10.38;;;5.50;;
35074;SDS011;21260;34.984;32.490;2023-08-12T07:34:31;7.47;;;5.00;;
35074;SDS011;21260;34.984;32.490;2023-08-12T07:36:57;7.53;;;5.32;;
35074;SDS011;21260;34.984;32.490;2023-08-12T07:39:23;6.45;;;5.10;;
35074;SDS011;21260;34.984;32.490;2023-08-12T07:41:49;9.95;;;5.47;;
35074;SDS011;21260;34.984;32.490;2023-08-12T07:44:16;8.10;;;4.90;;
35074;SDS011;21260;34.984;32.490;2023-08-12T07:46:42;6.28;;;4.70;;
35074;SDS011;21260;34.984;32.490;2023-08-12T07:49:10;5.88;;;4.90;;
35074;SDS011;21260;34.984;32.490;2023-08-12T07:51:37;7.40;;;4.75;;
35074;SDS011;21260;34.984;32.490;2023-08-12T07:54:03;7.50;;;4.40;;
35074;SDS011;21260;34.984;32.490;2023-08-12T07:56:30;11.95;;;5.40;;
35074;SDS011;21260;34.984;32.490;2023-08-12T07:58:56;9.70;;;5.63;;
35074;SDS011;21260;34.984;32.490;2023-08-12T08:01:25;9.57;;;5.40;;
35074;SDS011;21260;34.984;32.490;2023-08-12T08:03:52;8.90;;;5.65;;
35074;SDS011;21260;34.984;32.490;2023-08-12T08:06:19;8.65;;;5.53;;
35074;SDS011;21260;34.984;32.490;2023-08-12T08:08:45;8.40;;;5.47;;
35074;SDS011;21260;34.984;32.490;2023-08-12T08:11:11;8.80;;;5.55;;
35074;SDS011;21260;34.984;32.490;2023-08-12T08:13:38;9.68;;;5.50;;
35074;SDS011;21260;34.984;32.490;2023-08-12T08:16:04;9.93;;;5.90;;
35074;SDS011;21260;34.984;32.490;2023-08-12T08:18:31;9.53;;;5.77;;
35074;SDS011;21260;34.984;32.490;2023-08-12T08:20:57;10.02;;;5.80;;
35074;SDS011;21260;34.984;32.490;2023-08-12T08:23:24;9.20;;;6.07;;
35074;SDS011;21260;34.984;32.490;2023-08-12T08:25:51;11.07;;;5.72;;
35074;SDS011;21260;34.984;32.490;2023-08-12T08:28:17;11.05;;;5.90;;
35074;SDS011;21260;34.984;32.490;2023-08-12T08:30:44;9.27;;;5.53;;
35074;SDS011;21260;34.984;32.490;2023-08-12T08:33:10;10.45;;;5.82;;
35074;SDS011;21260;34.984;32.490;2023-08-12T08:35:37;8.60;;;5.40;;
35074;SDS011;21260;34.984;32.490;2023-08-12T08:38:04;8.30;;;5.57;;
35074;SDS011;21260;34.984;32.490;2023-08-12T08:40:31;9.65;;;6.00;;
35074;SDS011;21260;34.984;32.490;2023-08-12T08:43:01;11.57;;;6.35;;
35074;SDS011;21260;34.984;32.490;2023-08-12T08:45:32;9.00;;;5.77;;
35074;SDS011;21260;34.984;32.490;2023-08-12T08:47:59;10.38;;;6.47;;
35074;SDS011;21260;34.984;32.490;2023-08-12T08:50:30;10.25;;;5.93;;
35074;SDS011;21260;34.984;32.490;2023-08-12T08:52:57;9.25;;;5.97;;
35074;SDS011;21260;34.984;32.490;2023-08-12T08:55:26;9.43;;;5.80;;
35074;SDS011;21260;34.984;32.490;2023-08-12T08:57:52;9.68;;;6.10;;
35074;SDS011;21260;34.984;32.490;2023-08-12T09:00:21;9.52;;;5.90;;
35074;SDS011;21260;34.984;32.490;2023-08-12T09:02:48;10.73;;;6.20;;
35074;SDS011;21260;34.984;32.490;2023-08-12T09:05:16;11.77;;;6.25;;
35074;SDS011;21260;34.984;32.490;2023-08-12T09:07:45;8.73;;;5.80;;
35074;SDS011;21260;34.984;32.490;2023-08-12T09:10:14;12.70;;;6.10;;
35074;SDS011;21260;34.984;32.490;2023-08-12T09:12:45;12.43;;;6.13;;
35074;SDS011;21260;34.984;32.490;2023-08-12T09:15:13;14.38;;;6.20;;
35074;SDS011;21260;34.984;32.490;2023-08-12T09:17:41;12.00;;;6.47;;
35074;SDS011;21260;34.984;32.490;2023-08-12T09:20:08;11.80;;;6.35;;
35074;SDS011;21260;34.984;32.490;2023-08-12T09:22:37;12.80;;;6.68;;
35074;SDS011;21260;34.984;32.490;2023-08-12T09:25:07;11.90;;;6.10;;
35074;SDS011;21260;34.984;32.490;2023-08-12T09:27:35;12.57;;;6.45;;
35074;SDS011;21260;34.984;32.490;2023-08-12T09:30:05;11.77;;;6.10;;
35074;SDS011;21260;34.984;32.490;2023-08-12T09:32:33;9.80;;;5.88;;
35074;SDS011;21260;34.984;32.490;2023-08-12T09:34:59;10.98;;;6.13;;
35074;SDS011;21260;34.984;32.490;2023-08-12T09:37:28;8.50;;;5.93;;
35074;SDS011;21260;34.984;32.490;2023-08-12T09:39:54;9.18;;;5.93;;
35074;SDS011;21260;34.984;32.490;2023-08-12T09:42:23;11.80;;;6.07;;
35074;SDS011;21260;34.984;32.490;2023-08-12T09:44:50;11.63;;;6.30;;
35074;SDS011;21260;34.984;32.490;2023-08-12T09:47:16;11.95;;;6.40;;
35074;SDS011;21260;34.984;32.490;2023-08-12T09:49:43;11.82;;;6.43;;
35074;SDS011;21260;34.984;32.490;2023-08-12T09:52:09;9.50;;;5.97;;
35074;SDS011;21260;34.984;32.490;2023-08-12T09:54:38;9.10;;;5.95;;
35074;SDS011;21260;34.984;32.490;2023-08-12T09:57:06;9.75;;;6.18;;
35074;SDS011;21260;34.984;32.490;2023-08-12T09:59:37;11.00;;;6.00;;
35074;SDS011;21260;34.984;32.490;2023-08-12T10:02:09;10.05;;;6.22;;
35074;SDS011;21260;34.984;32.490;2023-08-12T10:04:44;10.30;;;5.80;;
35074;SDS011;21260;34.984;32.490;2023-08-12T10:07:15;9.55;;;6.03;;
35074;SDS011;21260;34.984;32.490;2023-08-12T10:09:44;11.90;;;6.38;;
35074;SDS011;21260;34.984;32.490;2023-08-12T10:12:11;11.03;;;6.20;;
35074;SDS011;21260;34.984;32.490;2023-08-12T10:14:38;10.35;;;6.07;;
35074;SDS011;21260;34.984;32.490;2023-08-12T10:17:05;11.38;;;6.10;;
35074;SDS011;21260;34.984;32.490;2023-08-12T10:19:31;11.27;;;6.13;;
35074;SDS011;21260;34.984;32.490;2023-08-12T10:21:59;10.40;;;6.22;;
35074;SDS011;21260;34.984;32.490;2023-08-12T10:24:28;8.35;;;6.05;;
35074;SDS011;21260;34.984;32.490;2023-08-12T10:26:56;10.95;;;6.05;;
35074;SDS011;21260;34.984;32.490;2023-08-12T10:29:23;11.35;;;6.07;;
35074;SDS011;21260;34.984;32.490;2023-08-12T10:31:52;10.73;;;6.40;;
35074;SDS011;21260;34.984;32.490;2023-08-12T10:34:22;10.38;;;5.97;;
35074;SDS011;21260;34.984;32.490;2023-08-12T10:36:57;8.75;;;6.18;;
35074;SDS011;21260;34.984;32.490;2023-08-12T10:39:28;11.45;;;5.90;;
35074;SDS011;21260;34.984;32.490;2023-08-12T10:42:03;9.40;;;6.00;;
35074;SDS011;21260;34.984;32.490;2023-08-12T10:44:40;11.80;;;5.90;;
35074;SDS011;21260;34.984;32.490;2023-08-12T10:47:16;10.45;;;5.85;;
35074;SDS011;21260;34.984;32.490;2023-08-12T10:49:43;11.63;;;6.03;;
35074;SDS011;21260;34.984;32.490;2023-08-12T10:52:30;13.65;;;5.78;;
35074;SDS011;21260;34.984;32.490;2023-08-12T10:57:50;9.55;;;5.80;;
35074;SDS011;21260;34.984;32.490;2023-08-12T11:00:26;9.65;;;6.10;;
35074;SDS011;21260;34.984;32.490;2023-08-12T11:02:57;9.18;;;5.90;;
35074;SDS011;21260;34.984;32.490;2023-08-12T11:05:24;9.25;;;6.00;;
35074;SDS011;21260;34.984;32.490;2023-08-12T11:08:02;10.85;;;5.78;;
35074;SDS011;21260;34.984;32.490;2023-08-12T11:10:32;9.88;;;6.10;;
35074;SDS011;21260;34.984;32.490;2023-08-12T11:13:00;10.85;;;5.60;;
35074;SDS011;21260;34.984;32.490;2023-08-12T11:15:35;11.63;;;6.03;;
35074;SDS011;21260;34.984;32.490;2023-08-12T11:18:08;10.85;;;5.80;;
35074;SDS011;21260;34.984;32.490;2023-08-12T11:20:38;9.70;;;6.17;;
35074;SDS011;21260;34.984;32.490;2023-08-12T11:23:05;10.77;;;5.97;;
35074;SDS011;21260;34.984;32.490;2023-08-12T11:25:33;8.95;;;5.60;;
35074;SDS011;21260;34.984;32.490;2023-08-12T11:28:03;10.00;;;5.72;;
35074;SDS011;21260;34.984;32.490;2023-08-12T11:30:31;11.20;;;6.40;;
35074;SDS011;21260;34.984;32.490;2023-08-12T11:32:58;12.63;;;6.00;;
35074;SDS011;21260;34.984;32.490;2023-08-12T11:35:26;8.02;;;5.57;;
35074;SDS011;21260;34.984;32.490;2023-08-12T11:37:54;8.55;;;5.97;;
35074;SDS011;21260;34.984;32.490;2023-08-12T11:40:25;7.93;;;5.70;;
35074;SDS011;21260;34.984;32.490;2023-08-12T11:42:54;10.32;;;5.40;;
35074;SDS011;21260;34.984;32.490;2023-08-12T11:45:21;10.23;;;5.90;;
35074;SDS011;21260;34.984;32.490;2023-08-12T11:47:50;9.40;;;5.88;;
35074;SDS011;21260;34.984;32.490;2023-08-12T11:50:18;10.18;;;5.90;;
35074;SDS011;21260;34.984;32.490;2023-08-12T11:52:47;8.97;;;5.53;;
35074;SDS011;21260;34.984;32.490;2023-08-12T11:55:14;8.90;;;5.78;;
35074;SDS011;21260;34.984;32.490;2023-08-12T11:57:42;8.63;;;5.70;;
35074;SDS011;21260;34.984;32.490;2023-08-12T12:00:11;8.35;;;5.55;;
35074;SDS011;21260;34.984;32.490;2023-08-12T12:02:40;10.63;;;6.00;;
35074;SDS011;21260;34.984;32.490;2023-08-12T12:05:15;10.32;;;5.60;;
35074;SDS011;21260;34.984;32.490;2023-08-12T12:08:02;7.80;;;5.20;;
35074;SDS011;21260;34.984;32.490;2023-08-12T12:10:34;9.68;;;5.80;;
35074;SDS011;21260;34.984;32.490;2023-08-12T12:13:01;8.52;;;5.70;;
35074;SDS011;21260;34.984;32.490;2023-08-12T12:15:30;8.47;;;5.67;;
35074;SDS011;21260;34.984;32.490;2023-08-12T12:18:03;8.65;;;5.70;;
35074;SDS011;21260;34.984;32.490;2023-08-12T12:20:57;8.30;;;5.57;;
35074;SDS011;21260;34.984;32.490;2023-08-12T12:23:28;6.20;;;5.10;;
35074;SDS011;21260;34.984;32.490;2023-08-12T12:25:59;9.27;;;5.50;;
35074;SDS011;21260;34.984;32.490;2023-08-12T12:28:27;10.20;;;5.53;;
35074;SDS011;21260;34.984;32.490;2023-08-12T12:30:54;7.20;;;5.50;;
35074;SDS011;21260;34.984;32.490;2023-08-12T12:33:21;8.38;;;5.32;;
35074;SDS011;21260;34.984;32.490;2023-08-12T12:35:47;9.50;;;5.47;;
35074;SDS011;21260;34.984;32.490;2023-08-12T12:38:13;8.07;;;5.40;;
35074;SDS011;21260;34.984;32.490;2023-08-12T12:40:40;8.85;;;5.70;;
35074;SDS011;21260;34.984;32.490;2023-08-12T12:43:06;7.80;;;5.50;;
35074;SDS011;21260;34.984;32.490;2023-08-12T12:45:32;8.63;;;5.72;;
35074;SDS011;21260;34.984;32.490;2023-08-12T12:47:59;9.52;;;5.60;;
35074;SDS011;21260;34.984;32.490;2023-08-12T12:50:25;8.30;;;5.68;;
35074;SDS011;21260;34.984;32.490;2023-08-12T12:52:51;8.52;;;5.50;;
35074;SDS011;21260;34.984;32.490;2023-08-12T12:55:17;9.95;;;5.47;;
35074;SDS011;21260;34.984;32.490;2023-08-12T12:57:45;7.00;;;5.50;;
35074;SDS011;21260;34.984;32.490;2023-08-12T13:00:11;10.83;;;6.07;;
35074;SDS011;21260;34.984;32.490;2023-08-12T13:02:38;10.77;;;5.40;;
35074;SDS011;21260;34.984;32.490;2023-08-12T13:05:08;11.70;;;5.72;;
35074;SDS011;21260;34.984;32.490;2023-08-12T13:07:34;11.50;;;5.70;;
35074;SDS011;21260;34.984;32.490;2023-08-12T13:10:01;8.40;;;5.40;;
35074;SDS011;21260;34.984;32.490;2023-08-12T13:12:27;9.18;;;5.40;;
35074;SDS011;21260;34.984;32.490;2023-08-12T13:14:54;8.52;;;5.47;;
35074;SDS011;21260;34.984;32.490;2023-08-12T13:17:20;9.00;;;5.43;;
35074;SDS011;21260;34.984;32.490;2023-08-12T13:19:47;8.45;;;5.90;;
35074;SDS011;21260;34.984;32.490;2023-08-12T13:22:13;10.75;;;5.80;;
35074;SDS011;21260;34.984;32.490;2023-08-12T13:24:39;8.65;;;5.88;;
35074;SDS011;21260;34.984;32.490;2023-08-12T13:27:06;9.18;;;5.70;;
35074;SDS011;21260;34.984;32.490;2023-08-12T13:29:33;9.70;;;6.00;;
35074;SDS011;21260;34.984;32.490;2023-08-12T13:31:59;8.80;;;5.47;;
35074;SDS011;21260;34.984;32.490;2023-08-12T13:34:25;10.33;;;5.70;;
35074;SDS011;21260;34.984;32.490;2023-08-12T13:36:51;8.87;;;5.63;;
35074;SDS011;21260;34.984;32.490;2023-08-12T13:39:18;10.17;;;5.77;;
35074;SDS011;21260;34.984;32.490;2023-08-12T13:41:46;9.02;;;5.72;;
35074;SDS011;21260;34.984;32.490;2023-08-12T13:44:13;10.10;;;5.88;;
35074;SDS011;21260;34.984;32.490;2023-08-12T13:46:39;10.35;;;5.63;;
35074;SDS011;21260;34.984;32.490;2023-08-12T13:49:06;9.70;;;5.63;;
35074;SDS011;21260;34.984;32.490;2023-08-12T13:51:32;10.23;;;6.00;;
35074;SDS011;21260;34.984;32.490;2023-08-12T13:53:58;9.00;;;5.57;;
35074;SDS011;21260;34.984;32.490;2023-08-12T13:56:25;8.80;;;5.97;;
35074;SDS011;21260;34.984;32.490;2023-08-12T13:58:51;10.65;;;5.90;;
35074;SDS011;21260;34.984;32.490;2023-08-12T14:01:17;8.98;;;5.90;;
35074;SDS011;21260;34.984;32.490;2023-08-12T14:03:43;8.65;;;5.60;;
35074;SDS011;21260;34.984;32.490;2023-08-12T14:06:10;8.90;;;5.85;;
35074;SDS011;21260;34.984;32.490;2023-08-12T14:08:36;9.43;;;5.93;;
35074;SDS011;21260;34.984;32.490;2023-08-12T14:11:02;8.05;;;6.00;;
35074;SDS011;21260;34.984;32.490;2023-08-12T14:13:29;10.93;;;5.95;;
35074;SDS011;21260;34.984;32.490;2023-08-12T14:15:55;7.70;;;5.80;;
35074;SDS011;21260;34.984;32.490;2023-08-12T14:18:21;9.63;;;6.25;;
35074;SDS011;21260;34.984;32.490;2023-08-12T14:20:48;8.13;;;5.78;;
35074;SDS011;21260;34.984;32.490;2023-08-12T14:23:14;9.98;;;6.13;;
35074;SDS011;21260;34.984;32.490;2023-08-12T14:25:41;11.20;;;5.80;;
35074;SDS011;21260;34.984;32.490;2023-08-12T14:28:07;9.70;;;6.00;;
35074;SDS011;21260;34.984;32.490;2023-08-12T14:30:33;12.15;;;6.30;;
35074;SDS011;21260;34.984;32.490;2023-08-12T14:33:00;7.93;;;6.20;;
35074;SDS011;21260;34.984;32.490;2023-08-12T14:35:26;8.87;;;6.00;;